createdAt,value
2017-11-18T00:00:11.506Z,19.99
2017-11-18T00:01:11.496Z,19.95
2017-11-18T00:02:11.475Z,19.96
2017-11-18T00:03:11.461Z,20.00
2017-11-18T00:04:11.449Z,19.92
2017-11-18T00:05:11.435Z,19.91
2017-11-18T00:06:11.422Z,20.02
2017-11-18T00:07:11.408Z,20.02
2017-11-18T00:08:11.394Z,20.11
2017-11-18T00:09:11.380Z,20.02
2017-11-18T00:10:11.371Z,20.02
2017-11-18T00:11:11.350Z,20.10
2017-11-18T00:12:11.336Z,20.06
2017-11-18T00:13:11.326Z,20.04
2017-11-18T00:14:11.310Z,19.99
2017-11-18T00:15:11.295Z,20.06
2017-11-18T00:16:11.282Z,20.11
2017-11-18T00:17:11.268Z,20.07
2017-11-18T00:18:11.253Z,20.03
2017-11-18T00:19:11.241Z,20.07
2017-11-18T00:20:11.228Z,20.11
2017-11-18T00:21:11.213Z,20.11
2017-11-18T00:22:11.199Z,20.04
2017-11-18T00:23:11.185Z,20.13
2017-11-18T00:24:11.170Z,20.14
2017-11-18T00:25:11.157Z,20.21
2017-11-18T00:26:11.142Z,20.09
2017-11-18T00:27:11.129Z,20.18
2017-11-18T00:28:11.115Z,20.22
2017-11-18T00:29:11.100Z,20.19
2017-11-18T00:30:11.088Z,20.24
2017-11-18T00:31:11.073Z,20.16
2017-11-18T00:32:11.058Z,20.13
2017-11-18T00:33:11.044Z,20.19
2017-11-18T00:34:11.031Z,20.11
2017-11-18T00:35:11.016Z,20.10
2017-11-18T00:36:11.004Z,20.18
2017-11-18T00:37:10.994Z,20.19
2017-11-18T00:38:10.977Z,20.18
2017-11-18T00:39:10.967Z,20.18
2017-11-18T00:40:10.948Z,20.09
2017-11-18T00:41:10.936Z,20.18
2017-11-18T00:42:10.919Z,20.19
2017-11-18T00:43:10.906Z,20.16
2017-11-18T00:44:10.894Z,20.25
2017-11-18T00:45:10.878Z,20.16
2017-11-18T00:46:10.865Z,20.25
2017-11-18T00:47:10.850Z,20.21
2017-11-18T00:48:10.839Z,20.18
2017-11-18T00:49:10.823Z,20.16
2017-11-18T00:50:10.811Z,20.14
2017-11-18T00:51:10.807Z,20.21
2017-11-18T00:52:10.781Z,20.21
2017-11-18T00:53:10.769Z,20.22
2017-11-18T00:54:10.752Z,20.22
2017-11-18T00:55:10.744Z,20.21
2017-11-18T00:56:10.726Z,20.19
2017-11-18T00:57:10.719Z,20.14
2017-11-18T00:58:10.699Z,20.13
2017-11-18T00:59:10.683Z,20.21
2017-11-18T01:00:10.671Z,20.16
2017-11-18T01:01:10.707Z,20.22
2017-11-18T01:02:10.644Z,20.16
2017-11-18T01:03:10.636Z,20.19
2017-11-18T01:04:10.615Z,20.18
2017-11-18T01:05:10.604Z,20.21
2017-11-18T01:06:10.586Z,20.24
2017-11-18T01:07:10.574Z,20.24
2017-11-18T01:08:10.561Z,20.19
2017-11-18T01:09:10.546Z,20.24
2017-11-18T01:10:10.530Z,20.19
2017-11-18T01:11:10.517Z,20.22
2017-11-18T01:12:10.505Z,20.16
2017-11-18T01:13:10.494Z,20.22
2017-11-18T01:14:10.477Z,20.18
2017-11-18T01:15:10.465Z,20.21
2017-11-18T01:16:10.448Z,20.11
2017-11-18T01:17:10.436Z,20.21
2017-11-18T01:18:10.420Z,20.22
2017-11-18T01:19:10.409Z,20.18
2017-11-18T01:20:10.393Z,20.04
2017-11-18T01:21:10.381Z,20.21
2017-11-18T01:22:10.373Z,20.13
2017-11-18T01:23:10.357Z,20.14
2017-11-18T01:24:10.339Z,20.11
2017-11-18T01:25:10.325Z,20.03
2017-11-18T01:26:10.310Z,20.03
2017-11-18T01:27:10.296Z,19.99
2017-11-18T01:28:10.282Z,20.00
2017-11-18T01:29:10.271Z,20.04
2017-11-18T01:30:10.263Z,20.11
2017-11-18T01:31:10.248Z,20.02
2017-11-18T01:32:10.230Z,20.04
2017-11-18T01:33:10.215Z,20.00
2017-11-18T01:34:10.199Z,20.03
2017-11-18T01:35:10.185Z,20.11
2017-11-18T01:36:10.172Z,20.06
2017-11-18T01:37:10.158Z,20.00
2017-11-18T01:38:10.145Z,19.99
2017-11-18T01:39:10.131Z,20.03
2017-11-18T01:40:10.116Z,19.99
2017-11-18T01:41:10.102Z,20.04
2017-11-18T01:42:10.091Z,19.95
2017-11-18T01:43:10.076Z,19.96
2017-11-18T01:44:10.064Z,19.95
2017-11-18T01:45:10.049Z,20.00
2017-11-18T01:46:10.033Z,19.94
2017-11-18T01:47:10.021Z,19.95
2017-11-18T01:48:10.007Z,19.96
2017-11-18T01:49:09.993Z,19.95
2017-11-18T01:50:09.978Z,19.94
2017-11-18T01:51:09.965Z,19.92
2017-11-18T01:52:09.952Z,19.89
2017-11-18T01:53:09.937Z,19.91
2017-11-18T01:54:09.923Z,19.89
2017-11-18T01:55:09.911Z,19.94
2017-11-18T01:56:09.896Z,19.95
2017-11-18T01:57:09.884Z,19.92
2017-11-18T01:58:09.866Z,19.89
2017-11-18T01:59:09.855Z,19.92
2017-11-18T02:00:09.841Z,19.82
2017-11-18T02:01:09.827Z,19.88
2017-11-18T02:02:09.811Z,19.91
2017-11-18T02:03:09.800Z,19.86
2017-11-18T02:04:09.784Z,19.95
2017-11-18T02:05:09.779Z,19.92
2017-11-18T02:06:09.757Z,19.84
2017-11-18T02:07:09.744Z,19.85
2017-11-18T02:08:09.730Z,19.82
2017-11-18T02:09:09.717Z,19.89
2017-11-18T02:10:09.703Z,19.81
2017-11-18T02:11:09.688Z,19.89
2017-11-18T02:12:09.674Z,19.91
2017-11-18T02:13:09.662Z,19.92
2017-11-18T02:14:09.645Z,19.88
2017-11-18T02:15:09.632Z,19.82
2017-11-18T02:16:09.620Z,19.82
2017-11-18T02:17:09.604Z,19.91
2017-11-18T02:18:09.590Z,19.82
2017-11-18T02:19:09.578Z,19.84
2017-11-18T02:20:09.564Z,19.84
2017-11-18T02:21:09.567Z,19.81
2017-11-18T02:22:09.534Z,19.88
2017-11-18T02:23:09.520Z,19.79
2017-11-18T02:24:09.510Z,19.88
2017-11-18T02:25:09.493Z,19.85
2017-11-18T02:26:09.478Z,19.85
2017-11-18T02:27:09.465Z,19.73
2017-11-18T02:28:09.458Z,19.76
2017-11-18T02:29:09.446Z,19.70
2017-11-18T02:30:09.424Z,19.74
2017-11-18T02:31:09.420Z,19.77
2017-11-18T02:32:09.399Z,19.81
2017-11-18T02:33:09.381Z,19.81
2017-11-18T02:34:09.367Z,19.86
2017-11-18T02:35:09.353Z,19.79
2017-11-18T02:36:09.338Z,19.70
2017-11-18T02:37:09.324Z,19.76
2017-11-18T02:38:09.311Z,19.70
2017-11-18T02:39:09.296Z,19.71
2017-11-18T02:40:09.284Z,19.69
2017-11-18T02:41:09.267Z,19.73
2017-11-18T02:42:09.256Z,19.81
2017-11-18T02:43:09.242Z,19.71
2017-11-18T02:44:09.225Z,19.79
2017-11-18T02:45:09.213Z,19.63
2017-11-18T02:46:09.196Z,19.73
2017-11-18T02:47:09.184Z,19.71
2017-11-18T02:48:09.172Z,19.77
2017-11-18T02:49:09.155Z,19.76
2017-11-18T02:50:09.141Z,19.76
2017-11-18T02:51:09.128Z,19.69
2017-11-18T02:52:09.113Z,19.77
2017-11-18T02:53:09.100Z,19.73
2017-11-18T02:54:09.087Z,19.74
2017-11-18T02:55:09.071Z,19.69
2017-11-18T02:56:09.059Z,19.64
2017-11-18T02:57:09.045Z,19.70
2017-11-18T02:58:09.030Z,19.70
2017-11-18T02:59:09.014Z,19.66
2017-11-18T03:00:09.002Z,19.67
2017-11-18T03:01:08.988Z,19.71
2017-11-18T03:02:08.972Z,19.74
2017-11-18T03:03:08.958Z,19.67
2017-11-18T03:04:08.945Z,19.74
2017-11-18T03:05:08.933Z,19.74
2017-11-18T03:06:08.918Z,19.71
2017-11-18T03:07:08.902Z,19.54
2017-11-18T03:08:08.900Z,19.64
2017-11-18T03:09:08.874Z,19.67
2017-11-18T03:10:08.860Z,19.69
2017-11-18T03:11:08.845Z,19.59
2017-11-18T03:12:08.832Z,19.64
2017-11-18T03:13:08.818Z,19.62
2017-11-18T03:14:08.804Z,19.67
2017-11-18T03:15:08.792Z,19.70
2017-11-18T03:16:08.775Z,19.58
2017-11-18T03:17:08.762Z,19.67
2017-11-18T03:18:08.760Z,19.59
2017-11-18T03:19:08.733Z,19.69
2017-11-18T03:20:08.721Z,19.63
2017-11-18T03:21:08.706Z,19.64
2017-11-18T03:22:08.692Z,19.63
2017-11-18T03:23:08.681Z,19.59
2017-11-18T03:24:08.662Z,19.56
2017-11-18T03:25:08.650Z,19.58
2017-11-18T03:26:08.638Z,19.64
2017-11-18T03:27:08.623Z,19.52
2017-11-18T03:28:08.607Z,19.54
2017-11-18T03:29:08.593Z,19.51
2017-11-18T03:30:08.581Z,19.54
2017-11-18T03:31:08.569Z,19.62
2017-11-18T03:32:08.551Z,19.62
2017-11-18T03:33:08.537Z,19.59
2017-11-18T03:34:08.523Z,19.55
2017-11-18T03:35:08.508Z,19.55
2017-11-18T03:36:08.495Z,19.51
2017-11-18T03:37:08.480Z,19.56
2017-11-18T03:38:08.466Z,19.52
2017-11-18T03:39:08.453Z,19.52
2017-11-18T03:40:08.438Z,19.56
2017-11-18T03:41:08.423Z,19.59
2017-11-18T03:42:08.410Z,19.55
2017-11-18T03:43:08.397Z,19.55
2017-11-18T03:44:08.381Z,19.52
2017-11-18T03:45:08.368Z,19.49
2017-11-18T03:46:08.353Z,19.49
2017-11-18T03:47:08.338Z,19.49
2017-11-18T03:48:08.324Z,19.55
2017-11-18T03:49:08.312Z,19.51
2017-11-18T03:50:08.297Z,19.49
2017-11-18T03:51:08.316Z,19.55
2017-11-18T03:52:08.269Z,19.58
2017-11-18T03:53:08.256Z,19.58
2017-11-18T03:54:08.240Z,19.54
2017-11-18T03:55:08.224Z,19.51
2017-11-18T03:56:08.212Z,19.52
2017-11-18T03:57:08.199Z,19.52
2017-11-18T03:58:08.185Z,19.54
2017-11-18T03:59:08.169Z,19.47
2017-11-18T04:00:08.159Z,19.47
2017-11-18T04:01:08.141Z,19.37
2017-11-18T04:02:08.127Z,19.49
2017-11-18T04:03:08.112Z,19.49
2017-11-18T04:04:08.099Z,19.52
2017-11-18T04:05:08.085Z,19.51
2017-11-18T04:06:08.071Z,19.44
2017-11-18T04:07:08.058Z,19.45
2017-11-18T04:08:08.041Z,19.40
2017-11-18T04:09:08.029Z,19.52
2017-11-18T04:10:08.014Z,19.45
2017-11-18T04:11:08.029Z,19.47
2017-11-18T04:12:07.984Z,19.47
2017-11-18T04:13:07.970Z,19.48
2017-11-18T04:14:07.957Z,19.37
2017-11-18T04:15:07.945Z,19.47
2017-11-18T04:16:07.927Z,19.47
2017-11-18T04:17:07.915Z,19.45
2017-11-18T04:18:07.900Z,19.45
2017-11-18T04:19:07.886Z,19.49
2017-11-18T04:20:07.871Z,19.52
2017-11-18T04:21:07.858Z,19.44
2017-11-18T04:22:07.842Z,19.44
2017-11-18T04:23:07.829Z,19.41
2017-11-18T04:24:07.816Z,19.45
2017-11-18T04:25:07.802Z,19.40
2017-11-18T04:26:07.787Z,19.47
2017-11-18T04:27:07.773Z,19.37
2017-11-18T04:28:07.758Z,19.48
2017-11-18T04:29:07.745Z,19.41
2017-11-18T04:30:07.730Z,19.47
2017-11-18T04:31:07.717Z,19.41
2017-11-18T04:32:07.701Z,19.40
2017-11-18T04:33:07.700Z,19.40
2017-11-18T04:34:07.672Z,19.41
2017-11-18T04:35:07.659Z,19.48
2017-11-18T04:36:07.645Z,19.47
2017-11-18T04:37:07.631Z,19.49
2017-11-18T04:38:07.615Z,19.48
2017-11-18T04:39:07.601Z,19.33
2017-11-18T04:40:07.596Z,19.44
2017-11-18T04:41:07.573Z,19.45
2017-11-18T04:42:07.561Z,19.41
2017-11-18T04:43:07.544Z,19.41
2017-11-18T04:44:07.530Z,19.34
2017-11-18T04:45:07.517Z,19.40
2017-11-18T04:46:07.502Z,19.40
2017-11-18T04:47:07.487Z,19.37
2017-11-18T04:48:07.475Z,19.33
2017-11-18T04:49:07.462Z,19.40
2017-11-18T04:50:07.446Z,19.36
2017-11-18T04:51:07.432Z,19.40
2017-11-18T04:52:07.421Z,19.34
2017-11-18T04:53:07.405Z,19.27
2017-11-18T04:54:07.389Z,19.40
2017-11-18T04:55:07.376Z,19.33
2017-11-18T04:56:07.359Z,19.36
2017-11-18T04:57:07.349Z,19.29
2017-11-18T04:58:07.332Z,19.37
2017-11-18T04:59:07.326Z,19.36
2017-11-18T05:00:07.302Z,19.27
2017-11-18T05:01:07.291Z,19.37
2017-11-18T05:02:07.280Z,19.29
2017-11-18T05:03:07.262Z,19.30
2017-11-18T05:04:07.245Z,19.37
2017-11-18T05:05:07.233Z,19.31
2017-11-18T05:06:07.220Z,19.36
2017-11-18T05:07:07.202Z,19.29
2017-11-18T05:08:07.197Z,19.34
2017-11-18T05:09:07.176Z,19.31
2017-11-18T05:10:07.191Z,19.39
2017-11-18T05:11:07.146Z,19.33
2017-11-18T05:12:07.133Z,19.31
2017-11-18T05:13:07.119Z,19.33
2017-11-18T05:14:07.103Z,19.21
2017-11-18T05:15:07.097Z,19.22
2017-11-18T05:16:07.075Z,19.21
2017-11-18T05:17:07.061Z,19.34
2017-11-18T05:18:07.050Z,19.30
2017-11-18T05:19:07.034Z,19.29
2017-11-18T05:20:07.017Z,19.34
2017-11-18T05:21:07.006Z,19.29
2017-11-18T05:22:06.988Z,19.34
2017-11-18T05:23:06.974Z,19.34
2017-11-18T05:24:06.962Z,19.33
2017-11-18T05:25:06.948Z,19.26
2017-11-18T05:26:06.931Z,19.37
2017-11-18T05:27:06.920Z,19.34
2017-11-18T05:28:06.905Z,19.36
2017-11-18T05:29:06.891Z,19.37
2017-11-18T05:30:06.880Z,19.26
2017-11-18T05:31:06.862Z,19.31
2017-11-18T05:32:06.846Z,19.30
2017-11-18T05:33:06.842Z,19.22
2017-11-18T05:34:06.816Z,19.36
2017-11-18T05:35:06.805Z,19.26
2017-11-18T05:36:06.788Z,19.31
2017-11-18T05:37:06.778Z,19.22
2017-11-18T05:38:06.762Z,19.40
2017-11-18T05:39:06.748Z,19.36
2017-11-18T05:40:06.732Z,19.31
2017-11-18T05:41:06.718Z,19.34
2017-11-18T05:42:06.703Z,19.30
2017-11-18T05:43:06.691Z,19.36
2017-11-18T05:44:06.675Z,19.30
2017-11-18T05:45:06.668Z,19.34
2017-11-18T05:46:06.649Z,19.29
2017-11-18T05:47:06.634Z,19.22
2017-11-18T05:48:06.619Z,19.22
2017-11-18T05:49:06.606Z,19.29
2017-11-18T05:50:06.590Z,19.26
2017-11-18T05:51:06.575Z,19.30
2017-11-18T05:52:06.568Z,19.21
2017-11-18T05:53:06.549Z,19.30
2017-11-18T05:54:06.533Z,19.33
2017-11-18T05:55:06.518Z,19.21
2017-11-18T05:56:06.505Z,19.24
2017-11-18T05:57:06.490Z,19.27
2017-11-18T05:58:06.476Z,19.27
2017-11-18T05:59:06.461Z,19.34
2017-11-18T06:00:06.449Z,19.24
2017-11-18T06:01:06.435Z,19.33
2017-11-18T06:02:06.420Z,19.26
2017-11-18T06:03:06.406Z,19.26
2017-11-18T06:04:06.391Z,19.21
2017-11-18T06:05:06.384Z,19.24
2017-11-18T06:06:06.362Z,19.31
2017-11-18T06:07:06.347Z,19.19
2017-11-18T06:08:06.335Z,19.19
2017-11-18T06:09:06.324Z,19.29
2017-11-18T06:10:06.304Z,19.24
2017-11-18T06:11:06.292Z,19.18
2017-11-18T06:12:06.278Z,19.30
2017-11-18T06:13:06.263Z,19.29
2017-11-18T06:14:06.258Z,19.26
2017-11-18T06:15:06.234Z,19.29
2017-11-18T06:16:06.219Z,19.21
2017-11-18T06:17:06.207Z,19.24
2017-11-18T06:18:06.190Z,19.19
2017-11-18T06:19:06.176Z,19.27
2017-11-18T06:20:06.161Z,19.26
2017-11-18T06:21:06.149Z,19.18
2017-11-18T06:22:06.133Z,19.22
2017-11-18T06:23:06.119Z,19.26
2017-11-18T06:24:06.104Z,19.15
2017-11-18T06:25:06.091Z,19.15
2017-11-18T06:26:06.075Z,19.22
2017-11-18T06:27:06.062Z,19.21
2017-11-18T06:28:06.047Z,19.18
2017-11-18T06:29:06.034Z,19.22
2017-11-18T06:30:06.019Z,19.22
2017-11-18T06:31:06.004Z,19.16
2017-11-18T06:32:05.992Z,19.15
2017-11-18T06:33:05.976Z,19.19
2017-11-18T06:34:05.961Z,19.19
2017-11-18T06:35:05.948Z,19.21
2017-11-18T06:36:05.935Z,19.22
2017-11-18T06:37:05.918Z,19.16
2017-11-18T06:38:05.903Z,19.19
2017-11-18T06:39:05.889Z,19.14
2017-11-18T06:40:05.875Z,19.19
2017-11-18T06:41:05.862Z,19.16
2017-11-18T06:42:05.851Z,19.19
2017-11-18T06:43:05.833Z,19.19
2017-11-18T06:44:05.820Z,19.15
2017-11-18T06:45:05.807Z,19.16
2017-11-18T06:46:05.791Z,19.22
2017-11-18T06:47:05.776Z,19.26
2017-11-18T06:48:05.767Z,19.21
2017-11-18T06:49:05.747Z,19.21
2017-11-18T06:50:05.734Z,19.27
2017-11-18T06:51:05.719Z,19.27
2017-11-18T06:52:05.706Z,19.33
2017-11-18T06:53:05.691Z,19.34
2017-11-18T06:54:05.684Z,19.31
2017-11-18T06:55:05.664Z,19.31
2017-11-18T06:56:05.649Z,19.27
2017-11-18T06:57:05.632Z,19.34
2017-11-18T06:58:05.619Z,19.45
2017-11-18T06:59:05.603Z,19.40
2017-11-18T07:00:05.590Z,19.44
2017-11-18T07:01:05.575Z,19.52
2017-11-18T07:02:05.562Z,19.44
2017-11-18T07:03:05.548Z,19.47
2017-11-18T07:04:05.535Z,19.45
2017-11-18T07:06:05.504Z,19.40
2017-11-18T07:07:05.491Z,19.63
2017-11-18T07:08:05.474Z,19.49
2017-11-18T07:09:05.461Z,19.51
2017-11-18T07:10:05.446Z,19.52
2017-11-18T07:11:05.434Z,19.51
2017-11-18T07:12:05.419Z,19.54
2017-11-18T07:13:05.403Z,19.55
2017-11-18T07:14:05.389Z,19.56
2017-11-18T07:15:05.375Z,19.56
2017-11-18T07:16:05.362Z,19.63
2017-11-18T07:17:05.346Z,19.69
2017-11-18T07:18:05.333Z,19.59
2017-11-18T07:19:05.316Z,19.62
2017-11-18T07:20:05.304Z,19.73
2017-11-18T07:21:05.289Z,19.62
2017-11-18T07:22:05.274Z,19.73
2017-11-18T07:23:05.262Z,19.69
2017-11-18T07:24:05.247Z,19.71
2017-11-18T07:25:05.233Z,19.71
2017-11-18T07:26:05.219Z,19.77
2017-11-18T07:27:05.205Z,19.76
2017-11-18T07:28:05.191Z,19.73
2017-11-18T07:29:05.177Z,19.77
2017-11-18T07:30:05.163Z,19.79
2017-11-18T07:31:05.153Z,19.76
2017-11-18T07:32:05.134Z,19.74
2017-11-18T07:33:05.118Z,19.73
2017-11-18T07:34:05.104Z,19.77
2017-11-18T07:35:05.094Z,19.76
2017-11-18T07:36:05.076Z,19.70
2017-11-18T07:37:05.062Z,19.74
2017-11-18T07:38:05.048Z,19.74
2017-11-18T07:39:05.035Z,19.81
2017-11-18T07:40:05.018Z,19.71
2017-11-18T07:41:05.005Z,19.82
2017-11-18T07:42:04.992Z,19.71
2017-11-18T07:43:04.976Z,19.69
2017-11-18T07:44:04.963Z,19.85
2017-11-18T07:45:04.956Z,19.85
2017-11-18T07:46:04.932Z,19.77
2017-11-18T07:47:04.919Z,19.81
2017-11-18T07:48:04.906Z,19.84
2017-11-18T07:49:04.892Z,19.82
2017-11-18T07:50:04.877Z,19.85
2017-11-18T07:51:04.865Z,19.77
2017-11-18T07:52:04.850Z,19.79
2017-11-18T07:53:04.836Z,19.77
2017-11-18T07:54:04.821Z,19.81
2017-11-18T07:55:04.807Z,19.85
2017-11-18T07:56:04.791Z,19.81
2017-11-18T07:57:04.778Z,19.81
2017-11-18T07:58:04.764Z,19.91
2017-11-18T07:59:04.748Z,19.85
2017-11-18T08:00:04.738Z,19.81
2017-11-18T08:01:04.722Z,19.79
2017-11-18T08:02:04.708Z,19.82
2017-11-18T08:03:04.694Z,19.96
2017-11-18T08:04:04.683Z,19.84
2017-11-18T08:05:04.667Z,19.85
2017-11-18T08:06:04.656Z,19.77
2017-11-18T08:07:04.639Z,19.91
2017-11-18T08:08:04.631Z,19.84
2017-11-18T08:09:04.616Z,19.96
2017-11-18T08:10:04.595Z,19.91
2017-11-18T08:11:04.580Z,19.96
2017-11-18T08:12:04.570Z,19.85
2017-11-18T08:13:04.553Z,19.89
2017-11-18T08:14:04.541Z,19.94
2017-11-18T08:15:04.525Z,19.88
2017-11-18T08:16:04.510Z,19.95
2017-11-18T08:17:04.497Z,19.92
2017-11-18T08:18:04.481Z,20.04
2017-11-18T08:19:04.470Z,19.99
2017-11-18T08:20:04.457Z,19.92
2017-11-18T08:21:04.444Z,19.95
2017-11-18T08:22:04.425Z,19.94
2017-11-18T08:23:04.418Z,19.96
2017-11-18T08:24:04.398Z,19.95
2017-11-18T08:25:04.384Z,19.92
2017-11-18T08:26:04.372Z,19.94
2017-11-18T08:27:04.356Z,19.88
2017-11-18T08:28:04.343Z,19.92
2017-11-18T08:29:04.330Z,19.77
2017-11-18T08:30:04.314Z,19.84
2017-11-18T08:31:04.301Z,19.85
2017-11-18T08:32:04.286Z,19.82
2017-11-18T08:33:04.274Z,19.77
2017-11-18T08:34:04.260Z,19.79
2017-11-18T08:35:04.246Z,19.85
2017-11-18T08:36:04.233Z,19.85
2017-11-18T08:37:04.217Z,19.86
2017-11-18T08:38:04.201Z,19.81
2017-11-18T08:39:04.189Z,19.84
2017-11-18T08:40:04.175Z,19.85
2017-11-18T08:41:04.160Z,19.84
2017-11-18T08:42:04.148Z,19.82
2017-11-18T08:43:04.134Z,19.77
2017-11-18T08:44:04.130Z,19.85
2017-11-18T08:45:04.106Z,19.82
2017-11-18T08:46:04.090Z,19.89
2017-11-18T08:47:04.079Z,19.79
2017-11-18T08:48:04.067Z,19.81
2017-11-18T08:49:04.058Z,19.85
2017-11-18T08:50:04.036Z,19.89
2017-11-18T08:51:04.023Z,19.89
2017-11-18T08:52:04.009Z,19.91
2017-11-18T08:53:03.996Z,19.89
2017-11-18T08:54:03.982Z,19.96
2017-11-18T08:55:03.966Z,20.02
2017-11-18T08:56:03.952Z,19.95
2017-11-18T08:57:03.941Z,20.00
2017-11-18T08:58:03.924Z,20.03
2017-11-18T08:59:03.910Z,20.00
2017-11-18T09:00:03.898Z,19.96
2017-11-18T09:01:03.884Z,20.07
2017-11-18T09:02:03.869Z,20.06
2017-11-18T09:03:03.857Z,20.00
2017-11-18T09:04:03.842Z,20.09
2017-11-18T09:05:03.830Z,20.02
2017-11-18T09:06:03.813Z,20.06
2017-11-18T09:07:03.802Z,20.11
2017-11-18T09:08:03.787Z,20.09
2017-11-18T09:09:03.775Z,20.21
2017-11-18T09:10:03.760Z,20.26
2017-11-18T09:11:03.746Z,20.24
2017-11-18T09:12:03.766Z,20.18
2017-11-18T09:13:03.725Z,20.19
2017-11-18T09:14:03.702Z,20.19
2017-11-18T09:15:03.741Z,20.18
2017-11-18T09:16:03.676Z,20.24
2017-11-18T09:17:03.661Z,20.24
2017-11-18T09:18:03.647Z,20.18
2017-11-18T09:19:03.635Z,20.18
2017-11-18T09:20:03.621Z,20.18
2017-11-18T09:21:03.609Z,20.18
2017-11-18T09:22:03.592Z,20.18
2017-11-18T09:23:03.581Z,20.26
2017-11-18T09:24:03.567Z,20.21
2017-11-18T09:25:03.552Z,20.10
2017-11-18T09:26:03.537Z,20.09
2017-11-18T09:27:03.524Z,20.13
2017-11-18T09:28:03.511Z,20.13
2017-11-18T09:29:03.503Z,20.02
2017-11-18T09:30:03.485Z,20.09
2017-11-18T09:31:03.468Z,20.10
2017-11-18T09:32:03.454Z,20.14
2017-11-18T09:33:03.444Z,20.13
2017-11-18T09:34:03.428Z,20.21
2017-11-18T09:35:03.416Z,20.10
2017-11-18T09:36:03.400Z,20.11
2017-11-18T09:37:03.385Z,20.13
2017-11-18T09:38:03.373Z,20.18
2017-11-18T09:39:03.360Z,20.34
2017-11-18T09:40:03.345Z,20.48
2017-11-18T09:41:03.333Z,20.51
2017-11-18T09:42:03.319Z,20.65
2017-11-18T09:43:03.304Z,20.92
2017-11-18T09:44:03.291Z,20.93
2017-11-18T09:45:03.276Z,20.88
2017-11-18T09:46:03.270Z,21.06
2017-11-18T09:47:03.249Z,21.00
2017-11-18T09:48:03.275Z,20.93
2017-11-18T09:49:03.229Z,20.93
2017-11-18T09:50:03.209Z,20.90
2017-11-18T09:51:03.195Z,20.95
2017-11-18T09:52:03.183Z,20.92
2017-11-18T09:53:03.170Z,20.82
2017-11-18T09:54:03.156Z,20.87
2017-11-18T09:55:03.142Z,20.96
2017-11-18T09:56:03.131Z,21.14
2017-11-18T09:57:03.117Z,21.18
2017-11-18T09:58:03.101Z,21.09
2017-11-18T09:59:03.089Z,21.14
2017-11-18T10:00:03.082Z,21.24
2017-11-18T10:01:03.065Z,21.15
2017-11-18T10:02:03.049Z,21.22
2017-11-18T10:03:03.037Z,21.24
2017-11-18T10:04:03.026Z,21.27
2017-11-18T10:05:03.012Z,21.27
2017-11-18T10:06:02.999Z,21.29
2017-11-18T10:07:02.987Z,21.17
2017-11-18T10:08:02.972Z,21.27
2017-11-18T10:09:02.958Z,21.30
2017-11-18T10:10:02.954Z,21.32
2017-11-18T10:11:02.934Z,21.33
2017-11-18T10:12:02.921Z,21.40
2017-11-18T10:13:02.907Z,21.33
2017-11-18T10:14:02.893Z,21.20
2017-11-18T10:15:02.882Z,21.25
2017-11-18T10:16:02.868Z,21.25
2017-11-18T10:17:02.855Z,21.22
2017-11-18T10:18:02.841Z,21.15
2017-11-18T10:19:02.832Z,21.24
2017-11-18T10:20:02.816Z,21.24
2017-11-18T10:21:02.805Z,21.12
2017-11-18T10:22:02.790Z,21.14
2017-11-18T10:23:02.776Z,21.22
2017-11-18T10:24:02.765Z,21.17
2017-11-18T10:25:02.753Z,21.17
2017-11-18T10:26:02.738Z,21.17
2017-11-18T10:27:02.726Z,21.24
2017-11-18T10:28:02.715Z,21.06
2017-11-18T10:29:02.702Z,21.21
2017-11-18T10:30:02.691Z,21.12
2017-11-18T10:31:02.675Z,21.14
2017-11-18T10:32:02.664Z,21.09
2017-11-18T10:33:02.655Z,21.12
2017-11-18T10:34:02.634Z,21.18
2017-11-18T10:35:02.623Z,21.11
2017-11-18T10:36:02.609Z,21.11
2017-11-18T10:37:02.597Z,20.99
2017-11-18T10:38:02.585Z,21.02
2017-11-18T10:39:02.572Z,20.93
2017-11-18T10:40:02.557Z,20.93
2017-11-18T10:41:02.545Z,20.95
2017-11-18T10:42:02.540Z,20.97
2017-11-18T10:43:02.520Z,20.88
2017-11-18T10:44:02.507Z,20.93
2017-11-18T10:45:02.494Z,20.81
2017-11-18T10:46:02.481Z,20.92
2017-11-18T10:47:02.466Z,20.87
2017-11-18T10:48:02.456Z,20.82
2017-11-18T10:49:02.441Z,20.97
2017-11-18T10:50:02.426Z,20.85
2017-11-18T10:51:02.417Z,20.82
2017-11-18T10:52:02.403Z,20.95
2017-11-18T10:53:02.391Z,20.96
2017-11-18T10:54:02.380Z,20.93
2017-11-18T10:55:02.370Z,21.05
2017-11-18T10:56:02.348Z,21.03
2017-11-18T10:57:02.337Z,21.06
2017-11-18T10:58:02.323Z,20.93
2017-11-18T10:59:02.311Z,20.92
2017-11-18T11:00:02.296Z,21.00
2017-11-18T11:01:02.283Z,21.05
2017-11-18T11:02:02.269Z,21.00
2017-11-18T11:03:02.258Z,20.96
2017-11-18T11:04:02.267Z,21.00
2017-11-18T11:05:02.231Z,21.00
2017-11-18T11:06:02.217Z,20.92
2017-11-18T11:07:02.205Z,20.92
2017-11-18T11:08:02.191Z,20.92
2017-11-18T11:09:02.180Z,20.84
2017-11-18T11:10:02.164Z,20.87
2017-11-18T11:11:02.154Z,20.90
2017-11-18T11:12:02.140Z,20.90
2017-11-18T11:13:02.128Z,20.87
2017-11-18T11:14:02.115Z,20.84
2017-11-18T11:15:02.107Z,20.78
2017-11-18T11:16:02.090Z,20.77
2017-11-18T11:17:02.076Z,20.77
2017-11-18T11:18:02.062Z,20.80
2017-11-18T11:19:02.048Z,20.63
2017-11-18T11:20:02.035Z,20.63
2017-11-18T11:21:02.023Z,20.60
2017-11-18T11:22:02.007Z,20.63
2017-11-18T11:23:01.996Z,20.67
2017-11-18T11:24:01.982Z,20.63
2017-11-18T11:25:01.969Z,20.59
2017-11-18T11:26:01.954Z,20.66
2017-11-18T11:27:01.942Z,20.63
2017-11-18T11:28:01.929Z,20.65
2017-11-18T11:29:01.916Z,20.63
2017-11-18T11:30:01.901Z,20.65
2017-11-18T11:31:01.889Z,20.63
2017-11-18T11:32:01.876Z,20.70
2017-11-18T11:33:01.864Z,20.78
2017-11-18T11:34:01.849Z,20.80
2017-11-18T11:35:01.837Z,20.88
2017-11-18T11:36:01.824Z,20.96
2017-11-18T11:37:01.812Z,21.17
2017-11-18T11:38:01.799Z,21.15
2017-11-18T11:39:01.784Z,21.18
2017-11-18T11:40:01.770Z,21.29
2017-11-18T11:41:01.759Z,21.25
2017-11-18T11:42:01.746Z,21.37
2017-11-18T11:43:01.735Z,21.39
2017-11-18T11:44:01.721Z,21.42
2017-11-18T11:45:01.707Z,21.46
2017-11-18T11:46:01.694Z,21.52
2017-11-18T11:47:01.680Z,21.58
2017-11-18T11:48:01.670Z,21.57
2017-11-18T11:49:01.657Z,21.48
2017-11-18T11:50:01.643Z,21.46
2017-11-18T11:51:01.631Z,21.37
2017-11-18T11:52:01.617Z,21.29
2017-11-18T11:53:01.607Z,21.27
2017-11-18T11:54:01.591Z,21.29
2017-11-18T11:55:01.579Z,21.21
2017-11-18T11:56:01.568Z,21.27
2017-11-18T11:57:01.557Z,21.30
2017-11-18T11:58:01.542Z,21.30
2017-11-18T11:59:01.531Z,21.24
2017-11-18T12:00:01.543Z,21.21
2017-11-18T12:01:01.506Z,21.14
2017-11-18T12:02:01.491Z,21.22
2017-11-18T12:03:01.478Z,21.09
2017-11-18T12:04:01.466Z,21.09
2017-11-18T12:05:01.455Z,21.15
2017-11-18T12:06:01.442Z,21.05
2017-11-18T12:07:01.428Z,21.02
2017-11-18T12:08:01.414Z,20.99
2017-11-18T12:09:01.403Z,21.02
2017-11-18T12:10:01.389Z,21.00
2017-11-18T12:11:01.386Z,21.06
2017-11-18T12:12:01.364Z,20.95
2017-11-18T12:13:01.356Z,20.99
2017-11-18T12:14:01.338Z,20.99
2017-11-18T12:15:01.325Z,20.96
2017-11-18T12:16:01.311Z,20.96
2017-11-18T12:17:01.298Z,20.90
2017-11-18T12:18:01.285Z,20.95
2017-11-18T12:19:01.272Z,20.92
2017-11-18T12:20:01.258Z,20.92
2017-11-18T12:21:01.245Z,20.95
2017-11-18T12:22:01.232Z,20.97
2017-11-18T12:23:01.221Z,20.95
2017-11-18T12:24:01.208Z,20.99
2017-11-18T12:25:01.193Z,20.84
2017-11-18T12:26:01.181Z,20.81
2017-11-18T12:27:01.167Z,20.84
2017-11-18T12:28:01.175Z,20.84
2017-11-18T12:29:01.141Z,20.92
2017-11-18T12:30:01.126Z,20.87
2017-11-18T12:31:01.113Z,20.88
2017-11-18T12:32:01.102Z,20.87
2017-11-18T12:33:01.088Z,20.81
2017-11-18T12:34:01.077Z,20.75
2017-11-18T12:35:01.060Z,20.78
2017-11-18T12:36:01.048Z,20.75
2017-11-18T12:37:01.035Z,20.77
2017-11-18T12:38:01.022Z,20.92
2017-11-18T12:39:01.008Z,20.84
2017-11-18T12:40:00.993Z,20.70
2017-11-18T12:41:00.983Z,20.77
2017-11-18T12:42:00.966Z,20.81
2017-11-18T12:43:00.954Z,20.78
2017-11-18T12:44:00.940Z,20.80
2017-11-18T12:45:00.929Z,20.69
2017-11-18T12:46:00.915Z,20.65
2017-11-18T12:47:00.902Z,20.65
2017-11-18T12:48:00.888Z,20.66
2017-11-18T12:49:00.874Z,20.60
2017-11-18T12:50:00.864Z,20.69
2017-11-18T12:51:00.847Z,20.62
2017-11-18T12:52:00.833Z,20.59
2017-11-18T12:53:00.819Z,20.58